createdAt,value
2018-04-22T00:00:02.561Z,1003.82
2018-04-22T00:01:02.556Z,1003.76
2018-04-22T00:02:02.592Z,1003.78
2018-04-22T00:03:02.545Z,1003.77
2018-04-22T00:04:02.550Z,1003.72
2018-04-22T00:05:02.584Z,1003.77
2018-04-22T00:06:02.575Z,1003.70
2018-04-22T00:07:02.577Z,1003.71
2018-04-22T00:08:02.583Z,1003.70
2018-04-22T00:09:02.623Z,1003.72
2018-04-22T00:10:02.612Z,1003.68
2018-04-22T00:11:02.582Z,1003.70
2018-04-22T00:12:02.561Z,1003.72
2018-04-22T00:13:02.566Z,1003.71
2018-04-22T00:14:02.626Z,1003.71
2018-04-22T00:15:02.626Z,1003.70
2018-04-22T00:16:02.593Z,1003.65
2018-04-22T00:17:02.597Z,1003.66
2018-04-22T00:18:02.602Z,1003.65
2018-04-22T00:19:02.588Z,1003.62
2018-04-22T00:20:02.656Z,1003.61
2018-04-22T00:21:02.597Z,1003.61
2018-04-22T00:22:02.610Z,1003.56
2018-04-22T00:23:02.622Z,1003.62
2018-04-22T00:24:02.607Z,1003.52
2018-04-22T00:25:02.646Z,1003.53
2018-04-22T00:26:02.601Z,1003.53
2018-04-22T00:28:23.727Z,1003.46
2018-04-22T00:29:23.875Z,1003.47
2018-04-22T00:30:23.702Z,1003.46
2018-04-22T00:31:23.731Z,1003.44
2018-04-22T00:32:23.843Z,1003.45
2018-04-22T00:33:23.703Z,1003.44
2018-04-22T00:34:23.804Z,1003.42
2018-04-22T00:35:23.701Z,1003.42
2018-04-22T00:36:23.735Z,1003.43
2018-04-22T00:37:23.693Z,1003.41
2018-04-22T00:38:23.685Z,1003.41
2018-04-22T00:39:23.804Z,1003.37
2018-04-22T00:40:23.696Z,1003.39
2018-04-22T00:41:23.749Z,1003.32
2018-04-22T00:42:23.748Z,1003.34
2018-04-22T00:43:23.713Z,1003.31
2018-04-22T00:44:23.700Z,1003.30
2018-04-22T00:45:23.747Z,1003.33
2018-04-22T00:46:23.777Z,1003.30
2018-04-22T00:47:23.694Z,1003.30
2018-04-22T00:48:23.770Z,1003.28
2018-04-22T00:49:23.742Z,1003.30
2018-04-22T00:50:23.755Z,1003.29
2018-04-22T00:51:23.806Z,1003.26
2018-04-22T00:52:23.702Z,1003.28
2018-04-22T00:53:23.785Z,1003.26
2018-04-22T00:54:23.736Z,1003.22
2018-04-22T00:55:23.729Z,1003.21
2018-04-22T00:56:23.710Z,1003.20
2018-04-22T00:57:23.802Z,1003.20
2018-04-22T00:58:23.722Z,1003.17
2018-04-22T00:59:23.731Z,1003.15
2018-04-22T01:00:23.769Z,1003.18
2018-04-22T01:01:23.791Z,1003.16
2018-04-22T01:02:23.763Z,1003.18
2018-04-22T01:03:23.762Z,1003.16
2018-04-22T01:04:23.774Z,1003.14
2018-04-22T01:05:23.741Z,1003.15
2018-04-22T01:06:23.728Z,1003.17
2018-04-22T01:07:23.724Z,1003.14
2018-04-22T01:08:23.779Z,1003.16
2018-04-22T01:09:23.730Z,1003.16
2018-04-22T01:10:23.750Z,1003.15
2018-04-22T01:11:23.736Z,1003.16
2018-04-22T01:12:23.748Z,1003.14
2018-04-22T01:13:23.818Z,1003.17
2018-04-22T01:14:23.810Z,1003.16
2018-04-22T01:15:23.768Z,1003.17
2018-04-22T01:16:23.745Z,1003.18
2018-04-22T01:17:23.750Z,1003.16
2018-04-22T01:18:23.792Z,1003.17
2018-04-22T01:19:23.769Z,1003.13
2018-04-22T01:20:23.780Z,1003.13
2018-04-22T01:21:23.805Z,1003.13
2018-04-22T01:22:23.779Z,1003.13
2018-04-22T01:23:23.785Z,1003.17
2018-04-22T01:24:23.826Z,1003.15
2018-04-22T01:25:23.798Z,1003.11
2018-04-22T01:26:23.760Z,1003.12
2018-04-22T01:27:23.761Z,1003.13
2018-04-22T01:28:23.812Z,1003.10
2018-04-22T01:29:23.849Z,1003.10
2018-04-22T01:30:23.872Z,1003.12
2018-04-22T01:31:23.792Z,1003.09
2018-04-22T01:32:23.797Z,1003.08
2018-04-22T01:33:23.876Z,1003.12
2018-04-22T01:34:23.849Z,1003.12
2018-04-22T01:35:23.858Z,1003.16
2018-04-22T01:36:23.819Z,1003.11
2018-04-22T01:37:23.790Z,1003.13
2018-04-22T01:38:23.788Z,1003.09
2018-04-22T01:39:23.835Z,1003.10
2018-04-22T01:40:23.803Z,1003.05
2018-04-22T01:41:23.865Z,1003.09
2018-04-22T01:42:23.827Z,1003.13
2018-04-22T01:43:23.825Z,1003.10
2018-04-22T01:44:23.823Z,1003.13
2018-04-22T01:45:23.828Z,1003.08
2018-04-22T01:46:23.837Z,1003.11
2018-04-22T01:47:23.820Z,1003.08
2018-04-22T01:48:23.838Z,1003.11
2018-04-22T01:49:23.841Z,1003.10
2018-04-22T01:50:23.808Z,1003.09
2018-04-22T01:51:23.839Z,1003.11
2018-04-22T01:52:23.837Z,1003.12
2018-04-22T01:53:23.847Z,1003.08
2018-04-22T01:54:23.845Z,1003.08
2018-04-22T01:55:23.815Z,1003.10
2018-04-22T01:56:23.818Z,1003.06
2018-04-22T01:57:23.829Z,1003.05
2018-04-22T01:58:23.822Z,1003.08
2018-04-22T01:59:23.826Z,1003.07
2018-04-22T02:00:23.840Z,1003.06
2018-04-22T02:01:23.841Z,1003.04
2018-04-22T02:02:23.856Z,1003.05
2018-04-22T02:03:23.914Z,1003.06
2018-04-22T02:04:23.857Z,1003.03
2018-04-22T02:05:23.855Z,1003.05
2018-04-22T02:06:23.834Z,1003.07
2018-04-22T02:07:23.835Z,1003.04
2018-04-22T02:08:23.841Z,1003.03
2018-04-22T02:09:23.847Z,1003.02
2018-04-22T02:10:23.871Z,1003.03
2018-04-22T02:11:23.850Z,1003.01
2018-04-22T02:12:23.843Z,1003.03
2018-04-22T02:13:23.841Z,1003.03
2018-04-22T02:14:23.890Z,1003.03
2018-04-22T02:15:23.855Z,1003.00
2018-04-22T02:16:23.879Z,1003.00
2018-04-22T02:17:23.849Z,1003.03
2018-04-22T02:18:23.869Z,1002.96
2018-04-22T02:19:23.898Z,1002.96
2018-04-22T02:20:23.874Z,1002.94
2018-04-22T02:21:23.880Z,1002.92
2018-04-22T02:22:23.883Z,1002.92
2018-04-22T02:23:23.883Z,1002.90
2018-04-22T02:24:23.860Z,1002.88
2018-04-22T02:25:23.862Z,1002.92
2018-04-22T02:26:23.863Z,1002.95
2018-04-22T02:27:23.867Z,1002.93
2018-04-22T02:28:23.919Z,1002.94
2018-04-22T02:29:23.865Z,1002.92
2018-04-22T02:30:23.937Z,1002.94
2018-04-22T02:31:23.877Z,1002.95
2018-04-22T02:32:23.890Z,1002.91
2018-04-22T02:33:23.946Z,1002.91
2018-04-22T02:34:23.919Z,1002.92
2018-04-22T02:35:23.887Z,1002.89
2018-04-22T02:36:23.886Z,1002.92
2018-04-22T02:37:23.892Z,1002.89
2018-04-22T02:38:23.901Z,1002.86
2018-04-22T02:39:25.417Z,1002.84
2018-04-22T02:40:23.891Z,1002.87
2018-04-22T02:41:23.918Z,1002.82
2018-04-22T02:42:23.916Z,1002.88
2018-04-22T02:43:23.929Z,1002.85
2018-04-22T02:45:48.085Z,1002.80
2018-04-22T02:46:48.090Z,1002.85
2018-04-22T02:48:41.463Z,1002.85
2018-04-22T02:49:41.474Z,1002.89
2018-04-22T02:50:41.442Z,1002.83
2018-04-22T02:51:41.486Z,1002.84
2018-04-22T02:52:41.451Z,1002.85
2018-04-22T02:53:41.438Z,1002.84
2018-04-22T02:54:41.446Z,1002.83
2018-04-22T02:55:50.164Z,1002.86
2018-04-22T02:57:34.915Z,1002.83
2018-04-22T02:58:34.992Z,1002.81
2018-04-22T02:59:34.873Z,1002.80
2018-04-22T03:00:34.909Z,1002.81
2018-04-22T03:01:34.867Z,1002.83
2018-04-22T03:02:34.832Z,1002.79
2018-04-22T03:21:57.669Z,1002.50
2018-04-22T03:22:57.672Z,1002.51
2018-04-22T03:23:57.605Z,1002.56
2018-04-22T03:24:57.713Z,1002.48
2018-04-22T03:25:57.633Z,1002.47
2018-04-22T03:26:57.607Z,1002.52
2018-04-22T03:27:57.615Z,1002.49
2018-04-22T03:28:57.603Z,1002.45
2018-04-22T03:29:57.627Z,1002.48
2018-04-22T03:30:57.637Z,1002.48
2018-04-22T03:31:57.635Z,1002.44
2018-04-22T03:32:57.616Z,1002.45
2018-04-22T03:33:57.608Z,1002.42
2018-04-22T03:34:57.585Z,1002.42
2018-04-22T03:35:57.588Z,1002.40
2018-04-22T03:36:57.588Z,1002.37
2018-04-22T03:37:57.634Z,1002.38
2018-04-22T03:38:57.587Z,1002.37
2018-04-22T03:39:57.584Z,1002.35
2018-04-22T03:40:57.591Z,1002.33
2018-04-22T03:41:57.602Z,1002.34
2018-04-22T03:42:57.598Z,1002.34
2018-04-22T03:43:57.617Z,1002.30
2018-04-22T03:44:57.601Z,1002.32
2018-04-22T03:45:57.617Z,1002.30
2018-04-22T03:46:57.633Z,1002.35
2018-04-22T03:47:57.624Z,1002.36
2018-04-22T03:48:57.603Z,1002.38
2018-04-22T03:49:57.618Z,1002.37
2018-04-22T03:50:57.591Z,1002.36
2018-04-22T03:51:57.650Z,1002.36
2018-04-22T03:53:06.256Z,1002.39
2018-04-22T03:54:51.028Z,1002.35
2018-04-22T03:55:50.987Z,1002.40
2018-04-22T03:56:50.990Z,1002.38
2018-04-22T03:57:50.985Z,1002.35
2018-04-22T03:58:50.998Z,1002.41
2018-04-22T03:59:51.001Z,1002.36
2018-04-22T04:00:50.988Z,1002.36
2018-04-22T04:01:50.988Z,1002.33
2018-04-22T04:02:50.998Z,1002.31
2018-04-22T04:03:50.988Z,1002.29
2018-04-22T04:04:50.991Z,1002.33
2018-04-22T04:05:50.992Z,1002.31
2018-04-22T04:06:51.046Z,1002.33
2018-04-22T04:07:51.010Z,1002.31
2018-04-22T04:08:51.014Z,1002.33
2018-04-22T04:09:51.013Z,1002.29
2018-04-22T04:10:51.031Z,1002.31
2018-04-22T04:11:51.010Z,1002.35
2018-04-22T04:12:51.003Z,1002.37
2018-04-22T04:13:50.996Z,1002.36
2018-04-22T04:14:51.004Z,1002.32
2018-04-22T04:15:51.012Z,1002.40
2018-04-22T04:16:51.000Z,1002.39
2018-04-22T04:17:51.002Z,1002.41
2018-04-22T04:18:51.000Z,1002.47
2018-04-22T04:19:50.999Z,1002.46
2018-04-22T04:20:51.000Z,1002.44
2018-04-22T04:21:51.011Z,1002.46
2018-04-22T04:22:51.022Z,1002.44
2018-04-22T04:23:51.013Z,1002.52
2018-04-22T04:24:51.027Z,1002.47
2018-04-22T04:25:51.021Z,1002.50
2018-04-22T04:26:59.642Z,1002.51
2018-04-22T04:28:44.514Z,1002.52
2018-04-22T04:31:07.363Z,1002.52
2018-04-22T04:32:07.342Z,1002.50
2018-04-22T04:33:07.360Z,1002.50
2018-04-22T04:34:07.369Z,1002.48
2018-04-22T04:35:07.311Z,1002.45
2018-04-22T04:36:07.419Z,1002.43
2018-04-22T04:37:07.329Z,1002.44
2018-04-22T04:38:07.315Z,1002.43
2018-04-22T04:39:07.320Z,1002.41
2018-04-22T04:40:07.324Z,1002.46
2018-04-22T04:41:07.318Z,1002.49
2018-04-22T04:42:07.348Z,1002.52
2018-04-22T04:43:07.323Z,1002.53
2018-04-22T04:44:07.371Z,1002.51
2018-04-22T04:45:07.406Z,1002.54
2018-04-22T04:46:07.353Z,1002.56
2018-04-22T04:47:07.353Z,1002.56
2018-04-22T04:48:07.337Z,1002.54
2018-04-22T04:49:07.352Z,1002.58
2018-04-22T04:50:07.327Z,1002.62
2018-04-22T04:51:07.322Z,1002.63
2018-04-22T04:52:07.324Z,1002.66
2018-04-22T04:53:07.323Z,1002.66
2018-04-22T04:54:07.323Z,1002.71
2018-04-22T04:55:07.326Z,1002.73
2018-04-22T04:56:07.323Z,1002.76
2018-04-22T04:57:07.336Z,1002.76
2018-04-22T04:58:07.345Z,1002.74
2018-04-22T04:59:07.343Z,1002.75
2018-04-22T05:00:17.046Z,1002.76
2018-04-22T05:02:09.823Z,1002.81
2018-04-22T05:03:09.403Z,1002.78
2018-04-22T05:04:54.172Z,1002.86
2018-04-22T05:05:54.159Z,1002.87
2018-04-22T05:06:54.171Z,1002.85
2018-04-22T05:07:54.183Z,1002.87
2018-04-22T05:08:54.198Z,1002.90
2018-04-22T05:09:54.184Z,1002.95
2018-04-22T05:10:54.210Z,1002.95
2018-04-22T05:11:54.188Z,1002.93
2018-04-22T05:12:54.219Z,1002.98
2018-04-22T05:13:54.184Z,1003.03
2018-04-22T05:14:54.176Z,1003.07
2018-04-22T05:15:54.209Z,1003.15
2018-04-22T05:16:54.193Z,1003.14
2018-04-22T05:17:54.210Z,1003.15
2018-04-22T05:18:54.231Z,1003.18
2018-04-22T05:19:54.209Z,1003.21
2018-04-22T05:20:54.216Z,1003.19
2018-04-22T05:21:54.221Z,1003.23
2018-04-22T05:22:54.234Z,1003.24
2018-04-22T05:23:54.241Z,1003.27
2018-04-22T05:24:54.269Z,1003.24
2018-04-22T05:25:54.277Z,1003.30
2018-04-22T05:26:54.281Z,1003.33
2018-04-22T05:27:54.315Z,1003.39
2018-04-22T05:28:54.311Z,1003.37
2018-04-22T05:29:54.312Z,1003.34
2018-04-22T05:30:54.300Z,1003.35
2018-04-22T05:31:54.306Z,1003.31
2018-04-22T05:32:54.341Z,1003.33
2018-04-22T05:33:54.345Z,1003.33
2018-04-22T05:34:54.340Z,1003.39
2018-04-22T05:35:54.388Z,1003.36
2018-04-22T05:36:54.377Z,1003.37
2018-04-22T05:37:54.384Z,1003.36
2018-04-22T05:38:54.401Z,1003.35
2018-04-22T05:39:54.438Z,1003.36
2018-04-22T05:40:54.422Z,1003.39
2018-04-22T05:41:54.434Z,1003.34
2018-04-22T05:42:54.453Z,1003.31
2018-04-22T05:43:54.432Z,1003.36
2018-04-22T05:44:54.461Z,1003.36
2018-04-22T05:45:54.564Z,1003.38
2018-04-22T05:46:54.502Z,1003.33
2018-04-22T05:47:54.507Z,1003.36
2018-04-22T05:48:54.580Z,1003.37
2018-04-22T05:49:54.525Z,1003.36
2018-04-22T05:50:54.605Z,1003.38
2018-04-22T05:51:54.589Z,1003.41
2018-04-22T05:52:54.586Z,1003.35
2018-04-22T05:53:54.552Z,1003.38
2018-04-22T05:54:54.646Z,1003.37
2018-04-22T05:55:54.614Z,1003.43
2018-04-22T05:56:54.651Z,1003.49
2018-04-22T05:57:54.636Z,1003.49
2018-04-22T05:58:54.637Z,1003.52
2018-04-22T05:59:54.653Z,1003.56
2018-04-22T06:00:54.663Z,1003.55
2018-04-22T06:01:54.680Z,1003.61
2018-04-22T06:02:54.679Z,1003.70
2018-04-22T06:03:54.748Z,1003.71
2018-04-22T06:04:54.711Z,1003.77
2018-04-22T06:05:54.725Z,1003.93
2018-04-22T06:06:54.741Z,1003.97
2018-04-22T06:07:54.761Z,1004.05
2018-04-22T06:08:54.800Z,1004.15
2018-04-22T06:09:54.813Z,1004.30
2018-04-22T06:10:54.823Z,1004.41
2018-04-22T06:11:54.846Z,1004.49
2018-04-22T06:12:54.857Z,1004.09
2018-04-22T06:13:54.893Z,1003.54
2018-04-22T06:14:54.878Z,1003.24
2018-04-22T06:15:54.874Z,1003.32
2018-04-22T06:16:54.894Z,1003.27
2018-04-22T06:17:54.898Z,1003.22
2018-04-22T06:18:54.955Z,1003.22
2018-04-22T06:19:54.924Z,1003.28
2018-04-22T06:20:54.930Z,1003.24
2018-04-22T06:21:54.995Z,1003.22
2018-04-22T06:22:55.030Z,1003.15
2018-04-22T06:23:55.009Z,1003.16
2018-04-22T06:24:54.977Z,1003.18
2018-04-22T06:25:55.030Z,1003.19
2018-04-22T06:26:55.021Z,1003.18
2018-04-22T06:27:55.071Z,1003.17
2018-04-22T06:28:55.053Z,1003.20
2018-04-22T06:29:55.025Z,1003.17
2018-04-22T06:30:55.081Z,1003.19
2018-04-22T06:31:55.115Z,1003.17
2018-04-22T06:32:55.076Z,1003.10
2018-04-22T06:33:55.076Z,1003.10
2018-04-22T06:34:55.117Z,1003.12
2018-04-22T06:35:55.072Z,1003.10
2018-04-22T06:36:55.124Z,1003.16
2018-04-22T06:37:55.114Z,1003.16
2018-04-22T06:38:55.107Z,1003.17
2018-04-22T06:39:55.142Z,1003.14
2018-04-22T06:40:55.163Z,1003.16
2018-04-22T06:41:55.214Z,1003.19
2018-04-22T06:42:55.173Z,1003.23
2018-04-22T06:43:55.163Z,1003.21
2018-04-22T06:44:55.161Z,1003.22
2018-04-22T06:45:55.166Z,1003.22
2018-04-22T06:46:55.180Z,1003.20
2018-04-22T06:47:55.171Z,1003.17
2018-04-22T06:48:55.187Z,1003.17
2018-04-22T06:49:55.204Z,1003.14
2018-04-22T06:50:55.201Z,1003.11
2018-04-22T06:51:55.211Z,1003.17
2018-04-22T06:52:55.222Z,1003.16
2018-04-22T06:53:55.193Z,1003.18
2018-04-22T06:54:55.195Z,1003.20
2018-04-22T06:55:55.194Z,1003.17
2018-04-22T06:56:55.245Z,1003.19
2018-04-22T06:57:55.207Z,1003.14
2018-04-22T06:58:55.249Z,1003.17
2018-04-22T06:59:55.216Z,1003.18
2018-04-22T07:00:55.284Z,1003.19
2018-04-22T07:01:55.266Z,1003.21
2018-04-22T07:02:55.246Z,1003.23
2018-04-22T07:03:55.249Z,1003.25
2018-04-22T07:04:55.310Z,1003.25
2018-04-22T07:05:55.251Z,1003.26
2018-04-22T07:06:55.245Z,1003.26
2018-04-22T07:07:55.255Z,1003.21
2018-04-22T07:08:55.254Z,1003.27
2018-04-22T07:09:55.259Z,1003.23
2018-04-22T07:10:55.267Z,1003.26
2018-04-22T07:11:55.297Z,1003.25
2018-04-22T07:12:55.278Z,1003.25
2018-04-22T07:13:55.280Z,1003.24
2018-04-22T07:14:55.281Z,1003.26
2018-04-22T07:15:55.287Z,1003.21
2018-04-22T07:17:04.968Z,1003.22
2018-04-22T07:18:58.812Z,1003.24
2018-04-22T07:19:48.698Z,1003.19
2018-04-22T07:20:48.711Z,1003.22
2018-04-22T07:21:48.721Z,1003.25
2018-04-22T07:22:48.755Z,1003.18
2018-04-22T07:23:48.780Z,1003.20
